sensor_id;sensor_type;location;lat;lon;timestamp;temperature;humidity
23562;DHT22;11959;49.418;8.728;2023-06-24T00:00:59;17.90;99.90
23562;DHT22;11959;49.418;8.728;2023-06-24T00:03:24;17.90;99.90
23562;DHT22;11959;49.418;8.728;2023-06-24T00:05:50;17.90;99.90
23562;DHT22;11959;49.418;8.728;2023-06-24T00:08:16;17.90;99.90
23562;DHT22;11959;49.418;8.728;2023-06-24T00:10:46;17.80;99.90
23562;DHT22;11959;49.418;8.728;2023-06-24T00:13:13;17.70;99.90
23562;DHT22;11959;49.418;8.728;2023-06-24T00:15:39;17.70;99.90
23562;DHT22;11959;49.418;8.728;2023-06-24T00:18:12;17.70;99.90
23562;DHT22;11959;49.418;8.728;2023-06-24T00:20:38;17.70;99.90
23562;DHT22;11959;49.418;8.728;2023-06-24T00:23:05;17.60;99.90
23562;DHT22;11959;49.418;8.728;2023-06-24T00:25:31;17.60;99.90
23562;DHT22;11959;49.418;8.728;2023-06-24T00:27:57;17.60;99.90
23562;DHT22;11959;49.418;8.728;2023-06-24T00:30:23;17.60;99.90
23562;DHT22;11959;49.418;8.728;2023-06-24T00:32:49;17.60;99.90
23562;DHT22;11959;49.418;8.728;2023-06-24T00:35:14;17.60;99.90
23562;DHT22;11959;49.418;8.728;2023-06-24T00:37:40;17.50;99.90
23562;DHT22;11959;49.418;8.728;2023-06-24T00:40:08;17.50;99.90
23562;DHT22;11959;49.418;8.728;2023-06-24T00:42:36;17.50;99.90
23562;DHT22;11959;49.418;8.728;2023-06-24T00:45:03;17.50;99.90
23562;DHT22;11959;49.418;8.728;2023-06-24T00:47:31;17.50;99.90
23562;DHT22;11959;49.418;8.728;2023-06-24T00:49:57;17.40;99.90
23562;DHT22;11959;49.418;8.728;2023-06-24T00:52:23;17.40;99.90
23562;DHT22;11959;49.418;8.728;2023-06-24T00:54:49;17.40;99.90
23562;DHT22;11959;49.418;8.728;2023-06-24T00:57:15;17.40;99.90
23562;DHT22;11959;49.418;8.728;2023-06-24T00:59:44;17.30;99.90
23562;DHT22;11959;49.418;8.728;2023-06-24T01:02:11;17.30;99.90
23562;DHT22;11959;49.418;8.728;2023-06-24T01:04:37;17.20;99.90
23562;DHT22;11959;49.418;8.728;2023-06-24T01:07:04;17.20;99.90
23562;DHT22;11959;49.418;8.728;2023-06-24T01:09:30;17.20;99.90
23562;DHT22;11959;49.418;8.728;2023-06-24T01:11:56;17.20;99.90
23562;DHT22;11959;49.418;8.728;2023-06-24T01:14:22;17.10;99.90
23562;DHT22;11959;49.418;8.728;2023-06-24T01:22:06;17.10;99.90
23562;DHT22;11959;49.418;8.728;2023-06-24T01:24:56;17.00;99.90
23562;DHT22;11959;49.418;8.728;2023-06-24T01:27:44;17.00;99.90
23562;DHT22;11959;49.418;8.728;2023-06-24T01:33:09;17.00;99.90
23562;DHT22;11959;49.418;8.728;2023-06-24T01:35:40;16.90;99.90
23562;DHT22;11959;49.418;8.728;2023-06-24T01:38:12;16.90;99.90
23562;DHT22;11959;49.418;8.728;2023-06-24T01:40:44;16.80;99.90
23562;DHT22;11959;49.418;8.728;2023-06-24T01:43:11;16.80;99.90
23562;DHT22;11959;49.418;8.728;2023-06-24T01:45:50;16.80;99.90
23562;DHT22;11959;49.418;8.728;2023-06-24T01:48:28;16.80;99.90
23562;DHT22;11959;49.418;8.728;2023-06-24T01:51:00;16.80;99.90
23562;DHT22;11959;49.418;8.728;2023-06-24T01:53:33;16.70;99.90
23562;DHT22;11959;49.418;8.728;2023-06-24T01:56:00;16.70;99.90
23562;DHT22;11959;49.418;8.728;2023-06-24T01:58:28;16.70;99.90
23562;DHT22;11959;49.418;8.728;2023-06-24T02:00:55;16.70;99.90
23562;DHT22;11959;49.418;8.728;2023-06-24T02:03:22;16.70;99.90
23562;DHT22;11959;49.418;8.728;2023-06-24T02:05:49;16.70;99.90
23562;DHT22;11959;49.418;8.728;2023-06-24T02:08:16;16.60;99.90
23562;DHT22;11959;49.418;8.728;2023-06-24T02:10:43;16.60;99.90
23562;DHT22;11959;49.418;8.728;2023-06-24T02:13:11;16.60;99.90
23562;DHT22;11959;49.418;8.728;2023-06-24T02:15:38;16.60;99.90
23562;DHT22;11959;49.418;8.728;2023-06-24T02:18:06;16.50;99.90
23562;DHT22;11959;49.418;8.728;2023-06-24T02:20:35;16.50;99.90
23562;DHT22;11959;49.418;8.728;2023-06-24T02:23:02;16.50;99.90
23562;DHT22;11959;49.418;8.728;2023-06-24T02:25:31;16.50;99.90
23562;DHT22;11959;49.418;8.728;2023-06-24T02:27:57;16.50;99.90
23562;DHT22;11959;49.418;8.728;2023-06-24T02:30:23;16.40;99.90
23562;DHT22;11959;49.418;8.728;2023-06-24T02:32:50;16.40;99.90
23562;DHT22;11959;49.418;8.728;2023-06-24T02:35:15;16.40;99.90
23562;DHT22;11959;49.418;8.728;2023-06-24T02:37:41;16.40;99.90
23562;DHT22;11959;49.418;8.728;2023-06-24T02:40:08;16.30;99.90
23562;DHT22;11959;49.418;8.728;2023-06-24T02:42:35;16.30;99.90
23562;DHT22;11959;49.418;8.728;2023-06-24T02:45:02;16.30;99.90
23562;DHT22;11959;49.418;8.728;2023-06-24T02:47:28;16.30;99.90
23562;DHT22;11959;49.418;8.728;2023-06-24T02:49:55;16.30;99.90
23562;DHT22;11959;49.418;8.728;2023-06-24T02:52:23;16.30;99.90
23562;DHT22;11959;49.418;8.728;2023-06-24T02:54:49;16.30;99.90
23562;DHT22;11959;49.418;8.728;2023-06-24T02:57:15;16.30;99.90
23562;DHT22;11959;49.418;8.728;2023-06-24T02:59:41;16.30;99.90
23562;DHT22;11959;49.418;8.728;2023-06-24T03:02:07;16.20;99.90
23562;DHT22;11959;49.418;8.728;2023-06-24T03:04:33;16.20;99.90
23562;DHT22;11959;49.418;8.728;2023-06-24T03:07:00;16.20;99.90
23562;DHT22;11959;49.418;8.728;2023-06-24T03:09:33;16.20;99.90
23562;DHT22;11959;49.418;8.728;2023-06-24T03:11:59;16.10;99.90
23562;DHT22;11959;49.418;8.728;2023-06-24T03:14:25;16.10;99.90
23562;DHT22;11959;49.418;8.728;2023-06-24T03:16:50;16.10;99.90
23562;DHT22;11959;49.418;8.728;2023-06-24T03:19:16;16.10;99.90
23562;DHT22;11959;49.418;8.728;2023-06-24T03:21:42;16.10;99.90
23562;DHT22;11959;49.418;8.728;2023-06-24T03:24:07;16.00;99.90
23562;DHT22;11959;49.418;8.728;2023-06-24T03:26:38;16.00;99.90
23562;DHT22;11959;49.418;8.728;2023-06-24T03:29:04;16.00;99.90
23562;DHT22;11959;49.418;8.728;2023-06-24T03:31:31;16.00;99.90
23562;DHT22;11959;49.418;8.728;2023-06-24T03:33:56;16.00;99.90
23562;DHT22;11959;49.418;8.728;2023-06-24T03:36:22;16.00;99.90
23562;DHT22;11959;49.418;8.728;2023-06-24T03:38:50;16.00;99.90
23562;DHT22;11959;49.418;8.728;2023-06-24T03:41:15;16.00;99.90
23562;DHT22;11959;49.418;8.728;2023-06-24T03:43:41;16.00;99.90
23562;DHT22;11959;49.418;8.728;2023-06-24T03:46:07;16.00;99.90
23562;DHT22;11959;49.418;8.728;2023-06-24T03:48:33;15.90;99.90
23562;DHT22;11959;49.418;8.728;2023-06-24T03:51:00;16.00;99.90
23562;DHT22;11959;49.418;8.728;2023-06-24T03:53:25;16.00;99.90
23562;DHT22;11959;49.418;8.728;2023-06-24T03:55:51;16.00;99.90
23562;DHT22;11959;49.418;8.728;2023-06-24T03:58:17;16.10;99.90
23562;DHT22;11959;49.418;8.728;2023-06-24T04:00:46;16.10;99.90
23562;DHT22;11959;49.418;8.728;2023-06-24T04:03:15;16.10;99.90
23562;DHT22;11959;49.418;8.728;2023-06-24T04:05:43;16.10;99.90
23562;DHT22;11959;49.418;8.728;2023-06-24T04:08:09;16.10;99.90
23562;DHT22;11959;49.418;8.728;2023-06-24T04:10:34;16.10;99.90
23562;DHT22;11959;49.418;8.728;2023-06-24T04:13:00;16.10;99.90
23562;DHT22;11959;49.418;8.728;2023-06-24T04:15:25;16.20;99.90
23562;DHT22;11959;49.418;8.728;2023-06-24T04:17:51;16.20;99.90
23562;DHT22;11959;49.418;8.728;2023-06-24T04:20:17;16.20;99.90
23562;DHT22;11959;49.418;8.728;2023-06-24T04:22:42;16.30;99.90
23562;DHT22;11959;49.418;8.728;2023-06-24T04:25:09;16.30;99.90
23562;DHT22;11959;49.418;8.728;2023-06-24T04:27:35;16.40;99.90
23562;DHT22;11959;49.418;8.728;2023-06-24T04:30:01;16.40;99.90
23562;DHT22;11959;49.418;8.728;2023-06-24T04:32:27;16.40;99.90
23562;DHT22;11959;49.418;8.728;2023-06-24T04:34:52;16.40;99.90
23562;DHT22;11959;49.418;8.728;2023-06-24T04:37:18;16.50;99.90
23562;DHT22;11959;49.418;8.728;2023-06-24T04:39:44;16.50;99.90
23562;DHT22;11959;49.418;8.728;2023-06-24T04:42:11;16.50;99.90
23562;DHT22;11959;49.418;8.728;2023-06-24T04:44:36;16.60;99.90
23562;DHT22;11959;49.418;8.728;2023-06-24T04:47:02;16.60;99.90
23562;DHT22;11959;49.418;8.728;2023-06-24T04:49:28;16.60;99.90
23562;DHT22;11959;49.418;8.728;2023-06-24T04:51:54;16.70;99.90
23562;DHT22;11959;49.418;8.728;2023-06-24T04:54:19;16.70;99.90
23562;DHT22;11959;49.418;8.728;2023-06-24T04:56:45;16.80;99.90
23562;DHT22;11959;49.418;8.728;2023-06-24T04:59:13;16.80;99.90
23562;DHT22;11959;49.418;8.728;2023-06-24T05:01:39;16.90;99.90
23562;DHT22;11959;49.418;8.728;2023-06-24T05:04:05;16.90;99.90
23562;DHT22;11959;49.418;8.728;2023-06-24T05:06:30;16.90;99.90
23562;DHT22;11959;49.418;8.728;2023-06-24T05:08:56;16.90;99.90
23562;DHT22;11959;49.418;8.728;2023-06-24T05:11:22;17.00;99.90
23562;DHT22;11959;49.418;8.728;2023-06-24T05:13:47;17.00;99.90
23562;DHT22;11959;49.418;8.728;2023-06-24T05:16:13;17.10;99.90
23562;DHT22;11959;49.418;8.728;2023-06-24T05:18:39;17.10;99.90
23562;DHT22;11959;49.418;8.728;2023-06-24T05:21:04;17.20;99.90
23562;DHT22;11959;49.418;8.728;2023-06-24T05:23:30;17.30;99.90
23562;DHT22;11959;49.418;8.728;2023-06-24T05:25:55;17.30;99.90
23562;DHT22;11959;49.418;8.728;2023-06-24T05:28:21;17.40;99.90
23562;DHT22;11959;49.418;8.728;2023-06-24T05:30:47;17.40;99.90
23562;DHT22;11959;49.418;8.728;2023-06-24T05:33:12;17.50;99.90
23562;DHT22;11959;49.418;8.728;2023-06-24T05:35:38;17.50;99.90
23562;DHT22;11959;49.418;8.728;2023-06-24T05:38:06;17.60;99.90
23562;DHT22;11959;49.418;8.728;2023-06-24T05:40:32;17.60;99.90
23562;DHT22;11959;49.418;8.728;2023-06-24T05:42:58;17.70;99.90
23562;DHT22;11959;49.418;8.728;2023-06-24T05:45:23;17.80;99.90
23562;DHT22;11959;49.418;8.728;2023-06-24T05:47:49;17.90;99.90
23562;DHT22;11959;49.418;8.728;2023-06-24T05:50:15;18.00;99.90
23562;DHT22;11959;49.418;8.728;2023-06-24T05:52:40;18.00;99.90
23562;DHT22;11959;49.418;8.728;2023-06-24T05:55:07;18.10;99.90
23562;DHT22;11959;49.418;8.728;2023-06-24T05:57:33;18.10;99.90
23562;DHT22;11959;49.418;8.728;2023-06-24T05:59:58;18.30;99.90
23562;DHT22;11959;49.418;8.728;2023-06-24T06:02:24;18.30;99.90
23562;DHT22;11959;49.418;8.728;2023-06-24T06:04:50;18.30;99.90
23562;DHT22;11959;49.418;8.728;2023-06-24T06:07:16;18.40;99.90
23562;DHT22;11959;49.418;8.728;2023-06-24T06:09:41;18.50;99.90
23562;DHT22;11959;49.418;8.728;2023-06-24T06:12:07;18.60;99.90
23562;DHT22;11959;49.418;8.728;2023-06-24T06:14:33;18.70;99.90
23562;DHT22;11959;49.418;8.728;2023-06-24T06:16:59;18.80;99.90
23562;DHT22;11959;49.418;8.728;2023-06-24T06:19:24;18.90;99.90
23562;DHT22;11959;49.418;8.728;2023-06-24T06:21:51;19.00;99.90
23562;DHT22;11959;49.418;8.728;2023-06-24T06:24:17;19.10;99.90
23562;DHT22;11959;49.418;8.728;2023-06-24T06:26:43;19.20;99.90
23562;DHT22;11959;49.418;8.728;2023-06-24T06:29:09;19.40;99.90
23562;DHT22;11959;49.418;8.728;2023-06-24T06:31:35;19.50;99.90
23562;DHT22;11959;49.418;8.728;2023-06-24T06:34:01;19.60;99.90
23562;DHT22;11959;49.418;8.728;2023-06-24T06:36:27;19.70;99.90
23562;DHT22;11959;49.418;8.728;2023-06-24T06:38:53;19.80;99.90
23562;DHT22;11959;49.418;8.728;2023-06-24T06:41:18;19.80;99.90
23562;DHT22;11959;49.418;8.728;2023-06-24T06:43:53;19.90;99.90
23562;DHT22;11959;49.418;8.728;2023-06-24T06:46:19;20.00;99.90
23562;DHT22;11959;49.418;8.728;2023-06-24T06:48:45;20.10;99.90
23562;DHT22;11959;49.418;8.728;2023-06-24T06:51:11;20.10;99.90
23562;DHT22;11959;49.418;8.728;2023-06-24T06:53:37;20.20;99.90
23562;DHT22;11959;49.418;8.728;2023-06-24T06:56:03;20.30;99.90
23562;DHT22;11959;49.418;8.728;2023-06-24T06:58:29;20.30;99.90
23562;DHT22;11959;49.418;8.728;2023-06-24T07:00:54;20.40;99.90
23562;DHT22;11959;49.418;8.728;2023-06-24T07:03:20;20.40;99.90
23562;DHT22;11959;49.418;8.728;2023-06-24T07:05:45;20.50;99.90
23562;DHT22;11959;49.418;8.728;2023-06-24T07:08:12;20.50;99.90
23562;DHT22;11959;49.418;8.728;2023-06-24T07:10:37;20.60;99.90
23562;DHT22;11959;49.418;8.728;2023-06-24T07:13:03;20.60;99.90
23562;DHT22;11959;49.418;8.728;2023-06-24T07:15:28;20.70;99.90
23562;DHT22;11959;49.418;8.728;2023-06-24T07:17:54;20.80;99.90
23562;DHT22;11959;49.418;8.728;2023-06-24T07:20:21;20.90;99.90
23562;DHT22;11959;49.418;8.728;2023-06-24T07:22:47;20.90;99.90
23562;DHT22;11959;49.418;8.728;2023-06-24T07:25:13;21.10;99.90
23562;DHT22;11959;49.418;8.728;2023-06-24T07:27:39;21.10;99.90
23562;DHT22;11959;49.418;8.728;2023-06-24T07:30:05;21.10;99.90
23562;DHT22;11959;49.418;8.728;2023-06-24T07:32:31;21.20;99.90
23562;DHT22;11959;49.418;8.728;2023-06-24T07:34:56;21.30;99.90
23562;DHT22;11959;49.418;8.728;2023-06-24T07:37:22;21.30;99.90
23562;DHT22;11959;49.418;8.728;2023-06-24T07:39:48;21.50;99.90
23562;DHT22;11959;49.418;8.728;2023-06-24T07:42:14;21.60;99.90
23562;DHT22;11959;49.418;8.728;2023-06-24T07:44:48;21.70;99.90
23562;DHT22;11959;49.418;8.728;2023-06-24T07:47:14;21.80;99.90
23562;DHT22;11959;49.418;8.728;2023-06-24T07:49:40;21.90;99.90
23562;DHT22;11959;49.418;8.728;2023-06-24T07:52:06;22.00;99.90
23562;DHT22;11959;49.418;8.728;2023-06-24T07:54:32;22.10;99.90
23562;DHT22;11959;49.418;8.728;2023-06-24T07:56:57;22.20;99.90
23562;DHT22;11959;49.418;8.728;2023-06-24T07:59:23;22.30;99.90
23562;DHT22;11959;49.418;8.728;2023-06-24T08:01:50;22.40;99.90
23562;DHT22;11959;49.418;8.728;2023-06-24T08:04:15;22.50;99.90
23562;DHT22;11959;49.418;8.728;2023-06-24T08:06:41;22.60;99.90
23562;DHT22;11959;49.418;8.728;2023-06-24T08:09:07;22.60;99.90
23562;DHT22;11959;49.418;8.728;2023-06-24T08:11:33;22.70;99.90
23562;DHT22;11959;49.418;8.728;2023-06-24T08:13:58;22.80;99.90
23562;DHT22;11959;49.418;8.728;2023-06-24T08:16:24;22.80;99.90
23562;DHT22;11959;49.418;8.728;2023-06-24T08:18:50;22.90;99.90
23562;DHT22;11959;49.418;8.728;2023-06-24T08:21:15;23.10;99.90
23562;DHT22;11959;49.418;8.728;2023-06-24T08:23:41;23.30;99.90
23562;DHT22;11959;49.418;8.728;2023-06-24T08:26:07;23.40;99.90
23562;DHT22;11959;49.418;8.728;2023-06-24T08:28:33;23.50;99.90
23562;DHT22;11959;49.418;8.728;2023-06-24T08:30:59;23.70;99.90
23562;DHT22;11959;49.418;8.728;2023-06-24T08:33:24;23.80;99.90
23562;DHT22;11959;49.418;8.728;2023-06-24T08:35:50;23.80;99.90
23562;DHT22;11959;49.418;8.728;2023-06-24T08:38:16;23.80;99.90
23562;DHT22;11959;49.418;8.728;2023-06-24T08:40:42;23.90;99.90
23562;DHT22;11959;49.418;8.728;2023-06-24T08:43:09;24.10;99.90
23562;DHT22;11959;49.418;8.728;2023-06-24T08:45:35;24.20;99.90
23562;DHT22;11959;49.418;8.728;2023-06-24T08:48:00;24.40;99.90
23562;DHT22;11959;49.418;8.728;2023-06-24T08:50:31;24.50;99.90
23562;DHT22;11959;49.418;8.728;2023-06-24T08:53:02;24.50;99.90
23562;DHT22;11959;49.418;8.728;2023-06-24T08:55:31;24.70;99.90
23562;DHT22;11959;49.418;8.728;2023-06-24T08:57:58;24.90;99.90
23562;DHT22;11959;49.418;8.728;2023-06-24T09:00:23;24.90;99.90
23562;DHT22;11959;49.418;8.728;2023-06-24T09:02:49;25.10;99.90
23562;DHT22;11959;49.418;8.728;2023-06-24T09:05:15;25.10;99.90
23562;DHT22;11959;49.418;8.728;2023-06-24T09:07:41;25.10;99.90
23562;DHT22;11959;49.418;8.728;2023-06-24T09:10:06;25.30;99.90
23562;DHT22;11959;49.418;8.728;2023-06-24T09:12:33;25.40;99.90
23562;DHT22;11959;49.418;8.728;2023-06-24T09:14:59;25.60;99.90
23562;DHT22;11959;49.418;8.728;2023-06-24T09:17:25;25.60;99.60
23562;DHT22;11959;49.418;8.728;2023-06-24T09:19:51;25.70;99.90
23562;DHT22;11959;49.418;8.728;2023-06-24T09:22:17;25.70;99.90
23562;DHT22;11959;49.418;8.728;2023-06-24T09:24:44;25.90;99.30
23562;DHT22;11959;49.418;8.728;2023-06-24T09:27:12;26.00;99.90
23562;DHT22;11959;49.418;8.728;2023-06-24T09:29:39;26.10;99.10
23562;DHT22;11959;49.418;8.728;2023-06-24T09:32:06;26.00;99.10
23562;DHT22;11959;49.418;8.728;2023-06-24T09:34:32;26.10;98.70
23562;DHT22;11959;49.418;8.728;2023-06-24T09:36:58;26.30;99.20
23562;DHT22;11959;49.418;8.728;2023-06-24T09:39:25;26.40;98.80
23562;DHT22;11959;49.418;8.728;2023-06-24T09:41:56;26.40;98.60
23562;DHT22;11959;49.418;8.728;2023-06-24T09:44:22;26.60;99.00
23562;DHT22;11959;49.418;8.728;2023-06-24T09:46:47;26.80;98.70
23562;DHT22;11959;49.418;8.728;2023-06-24T09:49:13;26.90;98.20
23562;DHT22;11959;49.418;8.728;2023-06-24T09:51:47;27.00;98.10
23562;DHT22;11959;49.418;8.728;2023-06-24T09:54:14;27.00;96.50
23562;DHT22;11959;49.418;8.728;2023-06-24T09:56:50;27.00;97.80
23562;DHT22;11959;49.418;8.728;2023-06-24T09:59:18;27.20;97.80
23562;DHT22;11959;49.418;8.728;2023-06-24T10:01:52;27.30;98.30
23562;DHT22;11959;49.418;8.728;2023-06-24T10:04:19;27.40;97.40
23562;DHT22;11959;49.418;8.728;2023-06-24T10:06:45;27.50;97.00
23562;DHT22;11959;49.418;8.728;2023-06-24T10:09:11;27.50;96.50
23562;DHT22;11959;49.418;8.728;2023-06-24T10:11:44;27.70;96.90
23562;DHT22;11959;49.418;8.728;2023-06-24T10:14:10;27.80;96.90
23562;DHT22;11959;49.418;8.728;2023-06-24T10:16:36;27.90;96.30
23562;DHT22;11959;49.418;8.728;2023-06-24T10:19:03;28.00;96.10
23562;DHT22;11959;49.418;8.728;2023-06-24T10:22:02;28.20;96.40
23562;DHT22;11959;49.418;8.728;2023-06-24T10:24:33;28.40;96.40
23562;DHT22;11959;49.418;8.728;2023-06-24T10:27:28;28.50;95.90
23562;DHT22;11959;49.418;8.728;2023-06-24T10:30:02;28.60;95.70
23562;DHT22;11959;49.418;8.728;2023-06-24T10:32:39;28.50;95.20
23562;DHT22;11959;49.418;8.728;2023-06-24T10:35:06;28.50;95.80
23562;DHT22;11959;49.418;8.728;2023-06-24T10:37:33;28.50;94.50
23562;DHT22;11959;49.418;8.728;2023-06-24T10:39:59;28.50;95.60
23562;DHT22;11959;49.418;8.728;2023-06-24T10:42:38;28.60;95.30
23562;DHT22;11959;49.418;8.728;2023-06-24T10:47:38;28.30;94.50
23562;DHT22;11959;49.418;8.728;2023-06-24T10:50:12;28.10;94.90
23562;DHT22;11959;49.418;8.728;2023-06-24T10:52:39;27.90;95.20
23562;DHT22;11959;49.418;8.728;2023-06-24T10:55:06;27.70;94.60
23562;DHT22;11959;49.418;8.728;2023-06-24T10:57:32;27.50;95.30
23562;DHT22;11959;49.418;8.728;2023-06-24T10:59:58;27.50;95.40
23562;DHT22;11959;49.418;8.728;2023-06-24T11:02:26;27.40;95.90
23562;DHT22;11959;49.418;8.728;2023-06-24T11:04:59;27.40;96.20
23562;DHT22;11959;49.418;8.728;2023-06-24T11:07:33;27.40;96.20
23562;DHT22;11959;49.418;8.728;2023-06-24T11:10:09;27.30;96.00
23562;DHT22;11959;49.418;8.728;2023-06-24T11:12:36;27.40;96.50
23562;DHT22;11959;49.418;8.728;2023-06-24T11:15:11;27.50;96.90
23562;DHT22;11959;49.418;8.728;2023-06-24T11:17:37;27.80;96.40
23562;DHT22;11959;49.418;8.728;2023-06-24T11:20:11;28.10;95.40
23562;DHT22;11959;49.418;8.728;2023-06-24T11:22:37;28.30;94.70
23562;DHT22;11959;49.418;8.728;2023-06-24T11:25:04;28.50;94.80
23562;DHT22;11959;49.418;8.728;2023-06-24T11:27:31;28.70;94.30
23562;DHT22;11959;49.418;8.728;2023-06-24T11:30:00;28.80;94.40
23562;DHT22;11959;49.418;8.728;2023-06-24T11:32:39;28.90;94.20
23562;DHT22;11959;49.418;8.728;2023-06-24T11:35:07;28.90;94.20
23562;DHT22;11959;49.418;8.728;2023-06-24T11:37:33;28.90;93.70
23562;DHT22;11959;49.418;8.728;2023-06-24T11:40:07;28.90;94.00
23562;DHT22;11959;49.418;8.728;2023-06-24T11:42:37;28.80;94.20
23562;DHT22;11959;49.418;8.728;2023-06-24T11:45:09;28.90;95.10
23562;DHT22;11959;49.418;8.728;2023-06-24T11:47:35;29.00;94.60
23562;DHT22;11959;49.418;8.728;2023-06-24T11:50:03;29.20;94.00
23562;DHT22;11959;49.418;8.728;2023-06-24T11:55:01;29.20;93.40
23562;DHT22;11959;49.418;8.728;2023-06-24T11:57:46;29.00;93.30
23562;DHT22;11959;49.418;8.728;2023-06-24T12:00:14;28.80;93.10
23562;DHT22;11959;49.418;8.728;2023-06-24T12:02:40;28.50;93.40
23562;DHT22;11959;49.418;8.728;2023-06-24T12:05:06;28.50;93.20
23562;DHT22;11959;49.418;8.728;2023-06-24T12:07:31;28.50;93.40
23562;DHT22;11959;49.418;8.728;2023-06-24T12:09:57;28.60;93.60
23562;DHT22;11959;49.418;8.728;2023-06-24T12:12:23;28.70;93.90
23562;DHT22;11959;49.418;8.728;2023-06-24T12:14:48;28.80;93.50
23562;DHT22;11959;49.418;8.728;2023-06-24T12:17:14;28.90;93.50
23562;DHT22;11959;49.418;8.728;2023-06-24T12:19:39;29.10;93.80
23562;DHT22;11959;49.418;8.728;2023-06-24T12:22:05;29.00;93.50
23562;DHT22;11959;49.418;8.728;2023-06-24T12:24:31;29.30;93.50
23562;DHT22;11959;49.418;8.728;2023-06-24T12:26:56;29.30;93.90
23562;DHT22;11959;49.418;8.728;2023-06-24T12:29:22;29.30;92.50
23562;DHT22;11959;49.418;8.728;2023-06-24T12:31:47;29.20;91.90
23562;DHT22;11959;49.418;8.728;2023-06-24T12:34:13;29.00;92.20
23562;DHT22;11959;49.418;8.728;2023-06-24T12:36:39;28.90;92.30
23562;DHT22;11959;49.418;8.728;2023-06-24T12:39:04;28.80;92.10
23562;DHT22;11959;49.418;8.728;2023-06-24T12:41:30;28.70;91.80
23562;DHT22;11959;49.418;8.728;2023-06-24T12:43:55;28.60;92.90
23562;DHT22;11959;49.418;8.728;2023-06-24T12:46:21;28.50;93.40
23562;DHT22;11959;49.418;8.728;2023-06-24T12:48:47;28.50;92.70
23562;DHT22;11959;49.418;8.728;2023-06-24T12:51:12;28.30;92.10
23562;DHT22;11959;49.418;8.728;2023-06-24T12:53:38;28.20;92.60
23562;DHT22;11959;49.418;8.728;2023-06-24T12:56:03;28.10;93.20
23562;DHT22;11959;49.418;8.728;2023-06-24T12:58:29;28.00;92.50
23562;DHT22;11959;49.418;8.728;2023-06-24T13:00:55;28.10;93.00
23562;DHT22;11959;49.418;8.728;2023-06-24T13:03:20;28.20;93.20
23562;DHT22;11959;49.418;8.728;2023-06-24T13:05:46;28.30;92.90
23562;DHT22;11959;49.418;8.728;2023-06-24T13:08:12;28.50;94.00
23562;DHT22;11959;49.418;8.728;2023-06-24T13:10:38;28.70;93.30
23562;DHT22;11959;49.418;8.728;2023-06-24T13:13:04;28.80;92.80
23562;DHT22;11959;49.418;8.728;2023-06-24T13:15:29;28.70;92.70
23562;DHT22;11959;49.418;8.728;2023-06-24T13:17:56;28.70;93.40
23562;DHT22;11959;49.418;8.728;2023-06-24T13:20:22;28.80;92.90
23562;DHT22;11959;49.418;8.728;2023-06-24T13:22:47;28.90;92.70
23562;DHT22;11959;49.418;8.728;2023-06-24T13:25:13;29.00;92.90
23562;DHT22;11959;49.418;8.728;2023-06-24T13:27:39;29.00;91.80
23562;DHT22;11959;49.418;8.728;2023-06-24T13:30:06;29.00;92.60
23562;DHT22;11959;49.418;8.728;2023-06-24T13:32:32;29.10;91.80
23562;DHT22;11959;49.418;8.728;2023-06-24T13:34:57;29.10;92.60
23562;DHT22;11959;49.418;8.728;2023-06-24T13:37:23;29.10;91.80
23562;DHT22;11959;49.418;8.728;2023-06-24T13:39:48;29.10;92.00
23562;DHT22;11959;49.418;8.728;2023-06-24T13:42:14;29.10;91.70
23562;DHT22;11959;49.418;8.728;2023-06-24T13:44:39;28.90;92.00
23562;DHT22;11959;49.418;8.728;2023-06-24T13:47:05;28.80;91.70
23562;DHT22;11959;49.418;8.728;2023-06-24T13:49:31;28.70;92.10
23562;DHT22;11959;49.418;8.728;2023-06-24T13:51:57;28.50;92.40
23562;DHT22;11959;49.418;8.728;2023-06-24T13:54:23;28.40;91.50
23562;DHT22;11959;49.418;8.728;2023-06-24T13:56:49;28.40;91.70
23562;DHT22;11959;49.418;8.728;2023-06-24T13:59:15;28.20;92.00
23562;DHT22;11959;49.418;8.728;2023-06-24T14:01:41;28.10;92.20
23562;DHT22;11959;49.418;8.728;2023-06-24T14:04:06;28.00;92.10
23562;DHT22;11959;49.418;8.728;2023-06-24T14:06:32;28.00;92.00
23562;DHT22;11959;49.418;8.728;2023-06-24T14:08:58;27.90;92.80
23562;DHT22;11959;49.418;8.728;2023-06-24T14:11:23;27.80;92.70
23562;DHT22;11959;49.418;8.728;2023-06-24T14:13:49;27.80;92.30
23562;DHT22;11959;49.418;8.728;2023-06-24T14:16:14;27.70;92.80
23562;DHT22;11959;49.418;8.728;2023-06-24T14:18:40;27.70;93.30
23562;DHT22;11959;49.418;8.728;2023-06-24T14:21:07;27.60;93.40
23562;DHT22;11959;49.418;8.728;2023-06-24T14:23:33;27.60;93.40
23562;DHT22;11959;49.418;8.728;2023-06-24T14:25:59;27.60;93.30
23562;DHT22;11959;49.418;8.728;2023-06-24T14:28:25;27.50;93.50
23562;DHT22;11959;49.418;8.728;2023-06-24T14:30:51;27.40;93.60
23562;DHT22;11959;49.418;8.728;2023-06-24T14:33:17;27.40;93.60
23562;DHT22;11959;49.418;8.728;2023-06-24T14:35:43;27.30;93.70
23562;DHT22;11959;49.418;8.728;2023-06-24T14:38:09;27.30;94.20
23562;DHT22;11959;49.418;8.728;2023-06-24T14:40:34;27.40;96.60
23562;DHT22;11959;49.418;8.728;2023-06-24T14:43:00;27.50;95.50
23562;DHT22;11959;49.418;8.728;2023-06-24T14:45:26;27.50;94.00
23562;DHT22;11959;49.418;8.728;2023-06-24T14:47:52;27.40;94.50
23562;DHT22;11959;49.418;8.728;2023-06-24T14:50:18;27.40;94.80
23562;DHT22;11959;49.418;8.728;2023-06-24T14:52:43;27.30;95.60
23562;DHT22;11959;49.418;8.728;2023-06-24T14:55:09;27.40;96.60
23562;DHT22;11959;49.418;8.728;2023-06-24T14:57:35;27.60;95.20
23562;DHT22;11959;49.418;8.728;2023-06-24T15:00:02;27.90;94.60
23562;DHT22;11959;49.418;8.728;2023-06-24T15:02:28;28.20;93.30
23562;DHT22;11959;49.418;8.728;2023-06-24T15:04:53;28.40;92.20
23562;DHT22;11959;49.418;8.728;2023-06-24T15:07:19;28.50;92.10
23562;DHT22;11959;49.418;8.728;2023-06-24T15:09:45;28.40;91.50
23562;DHT22;11959;49.418;8.728;2023-06-24T15:12:10;28.40;93.00
23562;DHT22;11959;49.418;8.728;2023-06-24T15:14:36;28.40;92.60
23562;DHT22;11959;49.418;8.728;2023-06-24T15:17:03;28.30;91.90
23562;DHT22;11959;49.418;8.728;2023-06-24T15:19:29;28.10;91.90
23562;DHT22;11959;49.418;8.728;2023-06-24T15:21:54;28.10;92.30
23562;DHT22;11959;49.418;8.728;2023-06-24T15:24:20;28.00;93.50
23562;DHT22;11959;49.418;8.728;2023-06-24T15:26:45;27.90;93.80
23562;DHT22;11959;49.418;8.728;2023-06-24T15:29:11;27.90;94.80
23562;DHT22;11959;49.418;8.728;2023-06-24T15:31:37;27.80;95.00
23562;DHT22;11959;49.418;8.728;2023-06-24T15:34:02;27.70;95.50
23562;DHT22;11959;49.418;8.728;2023-06-24T15:36:28;27.60;96.00
23562;DHT22;11959;49.418;8.728;2023-06-24T15:38:55;27.50;96.50
23562;DHT22;11959;49.418;8.728;2023-06-24T15:41:21;27.50;96.50